createdAt,value
2019-05-06T00:02:01.980Z,8.10
2019-05-06T00:04:34.096Z,8.10
2019-05-06T00:07:05.027Z,8.10
2019-05-06T00:09:35.507Z,8.10
2019-05-06T00:12:06.519Z,8.00
2019-05-06T00:14:37.223Z,8.00
2019-05-06T00:17:07.681Z,8.00
2019-05-06T00:19:38.047Z,8.00
2019-05-06T00:22:09.717Z,8.00
2019-05-06T00:24:46.791Z,8.10
2019-05-06T00:27:24.687Z,8.10
2019-05-06T00:29:55.147Z,8.10
2019-05-06T00:32:25.781Z,8.20
2019-05-06T00:34:56.775Z,8.20
2019-05-06T00:37:29.181Z,8.20
2019-05-06T00:40:11.567Z,8.20
2019-05-06T00:43:00.856Z,8.30
2019-05-06T00:45:33.993Z,8.30
2019-05-06T00:48:06.304Z,8.30
2019-05-06T00:50:36.589Z,8.40
2019-05-06T00:53:08.907Z,8.40
2019-05-06T00:55:39.302Z,8.40
2019-05-06T00:58:09.673Z,8.40
2019-05-06T01:00:40.050Z,8.40
2019-05-06T01:03:10.290Z,8.40
2019-05-06T01:05:40.571Z,8.40
2019-05-06T01:08:10.895Z,8.30
2019-05-06T01:10:41.280Z,8.30
2019-05-06T01:13:29.979Z,8.30
2019-05-06T01:16:00.283Z,8.30
2019-05-06T01:18:30.576Z,8.30
2019-05-06T01:21:10.325Z,8.30
2019-05-06T01:23:44.103Z,8.30
2019-05-06T01:26:16.263Z,8.30
2019-05-06T01:28:47.204Z,8.30
2019-05-06T01:31:17.895Z,8.30
2019-05-06T01:33:48.131Z,8.20
2019-05-06T01:36:19.056Z,8.20
2019-05-06T01:39:14.263Z,8.20
2019-05-06T01:41:56.502Z,8.30
2019-05-06T01:44:27.170Z,8.30
2019-05-06T01:46:57.588Z,8.20
2019-05-06T01:49:28.224Z,8.20
2019-05-06T01:51:58.853Z,8.20
2019-05-06T01:54:29.128Z,8.20
2019-05-06T01:56:59.499Z,8.20
2019-05-06T01:59:29.751Z,8.20
2019-05-06T02:02:01.267Z,8.20
2019-05-06T02:04:33.710Z,8.20
2019-05-06T02:07:04.383Z,8.10
2019-05-06T02:09:35.023Z,8.20
2019-05-06T02:12:08.342Z,8.20
2019-05-06T02:14:38.665Z,8.20
2019-05-06T02:17:09.304Z,8.20
2019-05-06T02:19:39.663Z,8.20
2019-05-06T02:22:18.279Z,8.10
2019-05-06T02:24:53.585Z,8.10
2019-05-06T02:27:24.716Z,8.10
2019-05-06T02:30:01.126Z,8.00
2019-05-06T02:32:38.903Z,8.00
2019-05-06T02:35:18.209Z,8.00
2019-05-06T02:37:48.593Z,8.00
2019-05-06T02:40:25.868Z,8.00
2019-05-06T02:42:56.180Z,8.00
2019-05-06T02:45:26.956Z,7.90
2019-05-06T02:48:13.819Z,7.90
2019-05-06T02:50:59.660Z,7.90
2019-05-06T02:53:33.118Z,7.80
2019-05-06T02:56:04.156Z,7.80
2019-05-06T02:58:34.515Z,7.70
2019-05-06T03:01:04.925Z,7.60
2019-05-06T03:03:35.222Z,7.60
2019-05-06T03:06:05.580Z,7.50
2019-05-06T03:08:35.917Z,7.50
2019-05-06T03:11:06.244Z,7.40
2019-05-06T03:13:36.645Z,7.40
2019-05-06T03:16:07.030Z,7.40
2019-05-06T03:18:37.428Z,7.40
2019-05-06T03:21:26.053Z,7.40
2019-05-06T03:24:03.928Z,7.30
2019-05-06T03:26:34.242Z,7.30
2019-05-06T03:29:04.565Z,7.30
2019-05-06T03:31:36.631Z,7.30
2019-05-06T03:34:36.536Z,7.30
2019-05-06T03:36:42.317Z,7.30
2019-05-06T03:39:13.896Z,7.30
2019-05-06T03:41:43.966Z,7.20
2019-05-06T03:44:16.658Z,7.20
2019-05-06T03:47:15.050Z,7.10
2019-05-06T03:49:50.209Z,7.20
2019-05-06T03:52:23.259Z,7.20
2019-05-06T03:54:56.021Z,7.20
2019-05-06T03:57:29.468Z,7.20
2019-05-06T04:00:04.506Z,7.10
2019-05-06T04:02:33.809Z,7.10
2019-05-06T04:05:04.442Z,7.20
2019-05-06T04:07:36.443Z,7.20
2019-05-06T04:10:07.603Z,7.30
2019-05-06T04:12:39.588Z,7.30
2019-05-06T04:15:13.871Z,7.40
2019-05-06T04:17:56.480Z,7.50
2019-05-06T04:20:43.374Z,7.50
2019-05-06T04:23:26.679Z,7.50
2019-05-06T04:26:23.957Z,7.50
2019-05-06T08:11:25.975Z,11.80
2019-05-06T08:13:55.381Z,11.60
2019-05-06T08:16:27.687Z,11.50
2019-05-06T08:18:58.241Z,11.50
2019-05-06T08:21:32.587Z,11.50
2019-05-06T08:24:02.799Z,11.40
2019-05-06T08:26:33.426Z,11.40
2019-05-06T08:29:06.029Z,11.40
2019-05-06T08:31:38.769Z,11.40
2019-05-06T08:34:12.126Z,11.40
2019-05-06T08:37:02.464Z,11.40
2019-05-06T08:39:35.531Z,11.40
2019-05-06T08:42:06.565Z,11.50
2019-05-06T08:44:37.136Z,11.80
2019-05-06T08:47:10.169Z,11.90
2019-05-06T08:50:02.350Z,11.90
2019-05-06T08:52:52.409Z,11.90
2019-05-06T08:55:29.577Z,11.90
2019-05-06T08:58:18.151Z,11.90
2019-05-06T09:00:59.720Z,12.00
2019-05-06T09:03:42.170Z,12.00
2019-05-06T09:06:26.974Z,12.00
2019-05-06T09:08:46.908Z,12.10
2019-05-06T09:11:25.221Z,12.00
2019-05-06T09:13:54.925Z,12.00
2019-05-06T09:16:32.929Z,12.10
2019-05-06T09:19:06.872Z,12.00
2019-05-06T09:21:49.452Z,12.00
2019-05-06T09:24:38.478Z,12.00
2019-05-06T09:27:23.707Z,12.10
2019-05-06T09:29:59.845Z,12.20
2019-05-06T09:32:36.289Z,12.40
2019-05-06T09:35:12.951Z,12.60
2019-05-06T09:37:43.150Z,12.70
2019-05-06T09:40:14.622Z,12.80
2019-05-06T09:42:45.000Z,12.80
2019-05-06T09:45:17.007Z,12.70
2019-05-06T09:47:57.156Z,12.70
2019-05-06T09:50:46.140Z,12.60
2019-05-06T09:53:26.997Z,12.30
2019-05-06T09:56:33.508Z,12.10
2019-05-06T09:59:07.671Z,12.00
2019-05-06T10:01:38.034Z,11.90
2019-05-06T10:04:08.818Z,11.90
2019-05-06T10:06:55.836Z,12.00
2019-05-06T10:09:15.949Z,11.90
2019-05-06T10:11:47.252Z,11.90
2019-05-06T10:14:19.098Z,11.90
2019-05-06T10:16:53.021Z,12.00
2019-05-06T10:19:24.790Z,12.00
2019-05-06T10:21:58.948Z,12.10
2019-05-06T10:24:32.871Z,12.10
2019-05-06T10:27:03.691Z,12.10
2019-05-06T10:29:59.455Z,12.00
2019-05-06T10:32:43.483Z,11.90
2019-05-06T10:35:13.903Z,11.90
2019-05-06T10:38:32.447Z,12.00
2019-05-06T10:41:08.546Z,12.00
2019-05-06T10:43:55.003Z,12.10
2019-05-06T10:46:25.466Z,12.20
2019-05-06T10:48:58.809Z,12.20
2019-05-06T10:51:37.263Z,12.30
2019-05-06T10:54:12.285Z,12.30
2019-05-06T10:57:03.860Z,12.40
2019-05-06T10:59:34.232Z,12.40
2019-05-06T11:02:23.296Z,12.50
2019-05-06T11:04:58.207Z,12.70
2019-05-06T11:07:36.412Z,12.80
2019-05-06T11:10:07.030Z,13.00
2019-05-06T11:12:37.494Z,13.20
2019-05-06T11:17:38.131Z,13.40
2019-05-06T11:20:11.402Z,13.70
2019-05-06T11:22:43.565Z,13.70
2019-05-06T11:25:16.779Z,13.70
2019-05-06T11:27:56.623Z,13.80
2019-05-06T11:30:52.940Z,13.80
2019-05-06T11:33:45.667Z,13.80
2019-05-06T11:36:23.048Z,13.80
2019-05-06T11:38:54.465Z,13.80
2019-05-06T11:41:29.488Z,13.80
2019-05-06T11:44:00.280Z,13.80
2019-05-06T11:46:32.230Z,13.80
2019-05-06T11:49:12.460Z,13.80
2019-05-06T11:51:43.689Z,13.90
2019-05-06T11:54:20.757Z,14.00
2019-05-06T11:56:51.502Z,14.00
2019-05-06T11:59:27.037Z,14.00
2019-05-06T12:02:07.563Z,14.20
2019-05-06T12:04:41.924Z,14.30
2019-05-06T12:07:15.667Z,14.30
2019-05-06T12:09:46.518Z,14.40
2019-05-06T12:12:20.113Z,14.40
2019-05-06T12:15:08.060Z,14.40
2019-05-06T12:18:23.232Z,14.30
2019-05-06T12:21:07.964Z,14.30
2019-05-06T12:23:26.835Z,14.30
2019-05-06T12:25:57.746Z,14.50
2019-05-06T12:28:28.117Z,14.50
2019-05-06T12:30:58.983Z,14.50
2019-05-06T12:33:35.883Z,14.40
2019-05-06T12:36:18.322Z,14.40
2019-05-06T12:39:09.853Z,14.50
2019-05-06T12:41:59.703Z,14.60
2019-05-06T12:44:33.836Z,14.70
2019-05-06T12:47:24.135Z,14.60
2019-05-06T12:49:58.893Z,14.60
2019-05-06T12:52:29.607Z,14.50
2019-05-06T12:55:17.467Z,14.50
2019-05-06T12:57:34.496Z,14.50
2019-05-06T13:00:06.035Z,14.60
2019-05-06T13:02:36.378Z,14.60
2019-05-06T13:05:07.185Z,14.60
2019-05-06T13:07:47.411Z,14.70
2019-05-06T13:10:23.058Z,14.60
2019-05-06T13:13:05.221Z,14.60
2019-05-06T13:15:52.706Z,14.40
2019-05-06T13:18:19.492Z,14.30
2019-05-06T13:20:53.168Z,14.20
2019-05-06T13:23:35.107Z,14.20
2019-05-06T13:26:04.906Z,14.20
2019-05-06T13:28:44.448Z,14.20
2019-05-06T13:31:21.526Z,14.20
2019-05-06T13:33:58.635Z,14.10
2019-05-06T13:36:38.289Z,14.10
2019-05-06T13:39:15.050Z,14.10
2019-05-06T13:41:49.344Z,14.10
2019-05-06T13:44:24.670Z,14.00
2019-05-06T13:46:58.390Z,13.90
2019-05-06T13:49:53.823Z,13.80
2019-05-06T13:52:27.630Z,13.60
2019-05-06T13:54:58.148Z,13.40
2019-05-06T13:57:29.362Z,13.40
2019-05-06T14:00:06.544Z,13.50
2019-05-06T14:03:02.113Z,13.50
2019-05-06T14:05:33.405Z,13.60
2019-05-06T14:08:04.844Z,13.70
2019-05-06T14:10:35.756Z,13.70
2019-05-06T14:13:10.288Z,13.70
2019-05-06T14:15:42.067Z,13.70
2019-05-06T14:18:13.618Z,13.60
2019-05-06T14:20:45.800Z,13.40
2019-05-06T14:23:16.568Z,13.20
2019-05-06T14:26:04.978Z,13.20
2019-05-06T14:28:54.628Z,13.20
2019-05-06T14:31:32.797Z,13.50
2019-05-06T14:34:03.705Z,13.70
2019-05-06T14:36:36.104Z,13.80
2019-05-06T14:39:14.678Z,13.90
2019-05-06T14:41:55.001Z,14.00
2019-05-06T14:44:32.659Z,13.90
2019-05-06T14:47:20.217Z,13.90
2019-05-06T14:49:52.994Z,13.90
2019-05-06T14:52:29.243Z,13.90
2019-05-06T14:55:22.483Z,13.80
2019-05-06T14:58:18.512Z,13.80
2019-05-06T15:00:53.450Z,13.80
2019-05-06T15:04:17.799Z,13.80
2019-05-06T15:07:06.486Z,13.80
2019-05-06T15:09:53.617Z,13.80
2019-05-06T15:12:19.536Z,13.80
2019-05-06T15:14:53.292Z,13.80
2019-05-06T15:17:24.498Z,13.80
2019-05-06T15:19:56.516Z,13.80
2019-05-06T15:22:30.184Z,13.80
2019-05-06T15:25:02.407Z,13.70
2019-05-06T15:27:33.650Z,13.70
2019-05-06T15:30:07.139Z,13.70
2019-05-06T15:32:39.623Z,13.80
2019-05-06T15:35:25.993Z,13.70
2019-05-06T15:38:02.397Z,13.70
2019-05-06T15:40:36.619Z,13.70
2019-05-06T15:43:07.553Z,13.60
2019-05-06T15:45:43.089Z,13.60
2019-05-06T15:48:13.723Z,13.60
2019-05-06T15:50:47.358Z,13.70
2019-05-06T15:53:18.401Z,13.80
2019-05-06T15:55:53.280Z,13.70
2019-05-06T15:58:22.952Z,13.70
2019-05-06T16:00:56.653Z,13.60
2019-05-06T16:03:27.085Z,13.60
2019-05-06T16:05:57.687Z,13.60
2019-05-06T16:08:32.087Z,13.60
2019-05-06T16:11:03.064Z,13.60
2019-05-06T16:13:33.437Z,13.60
2019-05-06T16:16:06.870Z,13.60
2019-05-06T16:18:35.987Z,13.60
2019-05-06T16:21:06.852Z,13.60
2019-05-06T16:23:44.945Z,13.50
2019-05-06T16:26:15.893Z,13.40
2019-05-06T16:28:46.525Z,13.30
2019-05-06T16:31:16.878Z,13.20
2019-05-06T16:33:47.163Z,13.20
2019-05-06T16:36:17.858Z,13.20
2019-05-06T16:38:48.186Z,13.20
2019-05-06T16:41:18.792Z,13.20
2019-05-06T16:43:49.427Z,13.20
2019-05-06T16:46:19.748Z,13.20
2019-05-06T16:48:52.447Z,13.10
2019-05-06T16:51:23.703Z,13.10
2019-05-06T16:53:54.127Z,13.10
2019-05-06T16:56:39.501Z,13.00
2019-05-06T16:59:12.794Z,12.90
2019-05-06T17:01:47.476Z,12.90
2019-05-06T17:04:35.032Z,13.00
2019-05-06T17:07:15.966Z,12.80
2019-05-06T17:09:48.868Z,12.80
2019-05-06T17:12:19.320Z,12.80
2019-05-06T17:14:49.630Z,12.80
2019-05-06T17:17:22.863Z,12.70
2019-05-06T17:19:54.953Z,12.70
2019-05-06T17:22:29.744Z,12.70
2019-05-06T17:25:02.413Z,12.70
2019-05-06T17:27:35.199Z,12.60
2019-05-06T17:30:15.818Z,12.50
2019-05-06T17:32:52.588Z,12.50
2019-05-06T17:35:23.532Z,12.40
2019-05-06T17:38:08.874Z,12.40
2019-05-06T17:40:39.547Z,12.40
2019-05-06T17:43:12.997Z,12.40
2019-05-06T17:46:02.213Z,12.40
2019-05-06T17:48:48.219Z,12.40
2019-05-06T17:51:23.983Z,12.40
2019-05-06T17:54:06.272Z,12.30
2019-05-06T17:56:36.733Z,12.30
2019-05-06T17:59:16.576Z,12.30
2019-05-06T18:01:53.020Z,12.30
2019-05-06T18:04:23.231Z,12.30
2019-05-06T18:06:53.915Z,12.30
2019-05-06T18:09:27.387Z,12.20
2019-05-06T18:11:59.697Z,12.20
2019-05-06T18:14:32.639Z,12.20
2019-05-06T18:17:03.618Z,12.10
2019-05-06T18:19:39.862Z,12.00
2019-05-06T18:22:10.167Z,12.00
2019-05-06T18:24:40.563Z,12.00
2019-05-06T18:27:13.401Z,12.00
2019-05-06T18:29:44.701Z,12.00
2019-05-06T18:32:15.671Z,11.90
2019-05-06T18:34:46.021Z,11.90
2019-05-06T18:37:18.779Z,11.80
2019-05-06T18:39:49.443Z,11.80
2019-05-06T18:42:23.612Z,11.80
2019-05-06T18:44:56.064Z,11.70
2019-05-06T18:47:28.060Z,11.70
2019-05-06T18:50:02.496Z,11.60
2019-05-06T18:52:40.712Z,11.60
2019-05-06T18:55:17.778Z,11.60
2019-05-06T18:57:52.629Z,11.60
2019-05-06T19:00:35.977Z,11.50
2019-05-06T19:03:06.487Z,11.50
2019-05-06T19:05:43.231Z,11.50
2019-05-06T19:08:24.812Z,11.50
2019-05-06T19:11:02.431Z,11.40
2019-05-06T19:13:35.210Z,11.40
2019-05-06T19:16:07.563Z,11.40
2019-05-06T19:18:58.935Z,11.40
2019-05-06T19:21:29.386Z,11.40
2019-05-06T19:24:00.027Z,11.30
2019-05-06T19:26:40.048Z,11.30
2019-05-06T19:29:12.342Z,11.20
2019-05-06T19:31:44.979Z,11.20
2019-05-06T19:34:17.081Z,11.20
2019-05-06T19:36:49.357Z,11.20
2019-05-06T19:39:23.920Z,11.20
2019-05-06T19:42:08.249Z,11.20
2019-05-06T19:44:46.758Z,11.20
2019-05-06T19:47:19.869Z,11.10
2019-05-06T19:49:52.984Z,11.10
2019-05-06T19:52:32.029Z,11.10
2019-05-06T19:55:05.897Z,11.10
2019-05-06T19:57:39.902Z,11.10
2019-05-06T20:00:11.644Z,11.10
2019-05-06T20:02:44.822Z,11.10
2019-05-06T20:05:30.918Z,11.00
2019-05-06T20:08:23.178Z,11.00
2019-05-06T20:11:15.460Z,11.00
2019-05-06T20:13:52.586Z,11.00
2019-05-06T20:16:23.503Z,11.00
2019-05-06T20:18:54.394Z,11.00
2019-05-06T20:21:25.845Z,11.00
2019-05-06T20:23:56.531Z,11.00
2019-05-06T20:26:27.141Z,10.90
2019-05-06T20:28:57.798Z,10.90
2019-05-06T20:31:28.589Z,10.90
2019-05-06T20:33:59.589Z,10.80
2019-05-06T20:36:33.141Z,10.90
2019-05-06T20:39:08.309Z,10.80
2019-05-06T20:41:42.559Z,10.80
2019-05-06T20:44:13.244Z,10.70
2019-05-06T20:46:44.136Z,10.70
2019-05-06T20:49:17.419Z,10.70
2019-05-06T20:51:49.505Z,10.70
2019-05-06T20:54:23.768Z,10.70
2019-05-06T20:56:57.756Z,10.70
2019-05-06T20:59:28.879Z,10.70
2019-05-06T21:02:03.067Z,10.70
2019-05-06T21:04:33.825Z,10.70
2019-05-06T21:07:04.534Z,10.70
2019-05-06T21:09:34.918Z,10.60
2019-05-06T21:12:05.632Z,10.60
2019-05-06T21:14:36.391Z,10.60
2019-05-06T21:17:07.559Z,10.60
2019-05-06T21:19:38.301Z,10.60
2019-05-06T21:22:08.699Z,10.60
2019-05-06T21:24:39.036Z,10.60
2019-05-06T21:27:09.363Z,10.50
2019-05-06T21:29:43.143Z,10.50
2019-05-06T21:32:13.959Z,10.50
2019-05-06T21:34:44.634Z,10.50
2019-05-06T21:37:19.050Z,10.40
2019-05-06T21:39:49.865Z,10.40
2019-05-06T21:42:20.500Z,10.40
2019-05-06T21:44:52.262Z,10.30
2019-05-06T21:47:22.912Z,10.30
2019-05-06T21:49:53.333Z,10.20
2019-05-06T21:52:36.294Z,10.10
2019-05-06T21:54:57.218Z,10.10
2019-05-06T21:57:39.405Z,10.00
2019-05-06T22:00:16.965Z,10.00
2019-05-06T22:02:46.657Z,9.90
2019-05-06T22:05:18.896Z,9.90
2019-05-06T22:07:49.790Z,9.80
2019-05-06T22:10:42.254Z,9.80
2019-05-06T22:13:25.489Z,9.70
2019-05-06T22:15:56.004Z,9.70
2019-05-06T22:18:48.888Z,9.70
2019-05-06T22:21:42.604Z,9.60
2019-05-06T22:24:15.743Z,9.70
2019-05-06T22:26:47.751Z,9.60
2019-05-06T22:29:18.632Z,9.60
2019-05-06T22:31:49.264Z,9.60
2019-05-06T22:34:22.202Z,9.60
2019-05-06T22:36:54.318Z,9.60
2019-05-06T22:39:27.905Z,9.60
2019-05-06T22:41:58.333Z,9.60
2019-05-06T22:44:32.327Z,9.50
2019-05-06T22:47:02.744Z,9.50
2019-05-06T22:49:33.646Z,9.50
2019-05-06T22:52:07.846Z,9.50
2019-05-06T22:54:38.401Z,9.50
2019-05-06T22:57:12.039Z,9.50
2019-05-06T22:59:43.243Z,9.40
2019-05-06T23:02:32.224Z,9.40
2019-05-06T23:05:04.497Z,9.40
2019-05-06T23:07:35.683Z,9.40
2019-05-06T23:10:07.496Z,9.30
2019-05-06T23:12:37.951Z,9.30
2019-05-06T23:15:09.458Z,9.30
2019-05-06T23:17:42.275Z,9.20
2019-05-06T23:20:13.468Z,9.20
2019-05-06T23:22:49.355Z,9.20
2019-05-06T23:25:22.042Z,9.20
2019-05-06T23:27:53.226Z,9.10
2019-05-06T23:30:24.228Z,9.10
2019-05-06T23:32:54.839Z,9.10
2019-05-06T23:35:26.320Z,9.00
2019-05-06T23:38:52.433Z,9.00
2019-05-06T23:42:17.041Z,8.90
2019-05-06T23:45:42.508Z,8.90
2019-05-06T23:49:07.882Z,8.90
2019-05-06T23:52:32.210Z,8.80
2019-05-06T23:55:59.232Z,8.70
2019-05-06T23:58:32.200Z,8.70
